createdAt,value
2023-05-05T00:04:29.536Z,56.17
2023-05-05T00:09:32.437Z,56.27
2023-05-05T00:14:35.543Z,56.88
2023-05-05T00:19:38.452Z,56.27
2023-05-05T00:24:41.349Z,56.15
2023-05-05T00:29:44.254Z,56.21
2023-05-05T00:34:47.170Z,56.96
2023-05-05T00:39:50.069Z,56.15
2023-05-05T00:44:52.977Z,56.75
2023-05-05T00:49:56.425Z,56.99
2023-05-05T00:54:59.671Z,57.17
2023-05-05T01:00:03.181Z,58.99
2023-05-05T01:05:08.891Z,59.50
2023-05-05T01:10:27.033Z,62.55
2023-05-05T01:15:49.043Z,65.16
2023-05-05T01:21:10.971Z,62.34
2023-05-05T01:26:59.422Z,51.63
2023-05-05T01:32:07.275Z,52.15
2023-05-05T01:37:37.060Z,54.25
2023-05-05T01:42:43.641Z,55.50
2023-05-05T01:47:47.851Z,57.00
2023-05-05T01:52:52.917Z,58.48
2023-05-05T01:57:58.831Z,59.65
2023-05-05T02:03:04.602Z,61.14
2023-05-05T02:08:09.765Z,62.79
2023-05-05T02:13:13.338Z,66.32
2023-05-05T02:18:18.134Z,60.05
2023-05-05T02:23:21.572Z,53.80
2023-05-05T02:29:04.221Z,55.63
2023-05-05T02:34:08.193Z,58.06
2023-05-05T02:39:14.989Z,59.36
2023-05-05T02:44:20.686Z,61.03
2023-05-05T02:49:23.691Z,64.68
2023-05-05T02:54:27.468Z,62.67
2023-05-05T02:59:59.392Z,55.99
2023-05-05T03:05:17.402Z,53.40
2023-05-05T03:10:23.222Z,55.72
2023-05-05T03:15:31.301Z,57.78
2023-05-05T03:20:35.132Z,59.67
2023-05-05T03:25:48.528Z,60.57
2023-05-05T03:30:52.187Z,63.82
2023-05-05T03:35:55.177Z,67.23
2023-05-05T03:41:02.304Z,62.14
2023-05-05T03:46:05.787Z,54.60
2023-05-05T03:51:09.037Z,53.09
2023-05-05T03:56:12.009Z,55.37
2023-05-05T04:01:15.305Z,57.15
2023-05-05T04:06:18.209Z,59.36
2023-05-05T04:11:21.632Z,59.79
2023-05-05T04:16:24.660Z,63.47
2023-05-05T04:21:27.741Z,65.94
2023-05-05T04:26:30.647Z,55.46
2023-05-05T04:31:33.577Z,55.76
2023-05-05T04:36:36.456Z,58.75
2023-05-05T04:41:39.361Z,60.55
2023-05-05T04:46:43.005Z,61.65
2023-05-05T04:51:46.723Z,64.34
2023-05-05T04:56:49.916Z,60.68
2023-05-05T05:01:53.046Z,55.28
2023-05-05T05:06:58.973Z,57.42
2023-05-05T05:12:03.240Z,60.28
2023-05-05T05:17:06.746Z,60.92
2023-05-05T05:22:09.670Z,62.31
2023-05-05T05:27:12.568Z,63.91
2023-05-05T05:32:15.839Z,56.41
2023-05-05T05:37:18.877Z,56.39
2023-05-05T05:42:21.787Z,58.49
2023-05-05T05:47:25.577Z,59.15
2023-05-05T05:52:28.412Z,58.22
2023-05-05T05:57:31.540Z,58.00
2023-05-05T06:02:34.454Z,58.14
2023-05-05T06:07:37.747Z,57.58
2023-05-05T06:12:40.658Z,55.32
2023-05-05T06:17:43.677Z,55.60
2023-05-05T06:22:46.651Z,54.08
2023-05-05T06:27:49.868Z,52.95
2023-05-05T06:32:54.489Z,52.41
2023-05-05T06:37:57.624Z,51.07
2023-05-05T06:43:00.527Z,49.33
2023-05-05T06:48:03.488Z,45.40
2023-05-05T06:53:06.649Z,44.30
2023-05-05T06:58:10.155Z,41.14
2023-05-05T07:03:13.739Z,38.73
2023-05-05T07:08:16.689Z,37.75
2023-05-05T07:13:20.153Z,36.28
2023-05-05T07:18:23.099Z,33.34
2023-05-05T07:23:26.008Z,33.01
2023-05-05T07:28:28.921Z,30.92
2023-05-05T07:33:31.716Z,30.47
2023-05-05T07:38:34.720Z,29.72
2023-05-05T07:43:39.614Z,29.77
2023-05-05T07:48:42.603Z,28.50
2023-05-05T07:53:45.582Z,28.09
2023-05-05T07:58:49.006Z,28.37
2023-05-05T08:03:52.179Z,27.46
2023-05-05T08:08:56.034Z,26.61
2023-05-05T08:13:59.584Z,26.26
2023-05-05T08:19:02.945Z,25.73
2023-05-05T08:24:06.463Z,24.92
2023-05-05T08:29:09.502Z,24.78
2023-05-05T08:34:12.379Z,24.51
2023-05-05T08:39:15.409Z,24.05
2023-05-05T08:44:18.531Z,23.80
2023-05-05T08:49:22.720Z,24.08
2023-05-05T08:54:31.148Z,23.01
2023-05-05T08:59:36.086Z,22.84
2023-05-05T09:04:39.413Z,22.43
2023-05-05T09:09:42.351Z,22.27
2023-05-05T09:15:02.252Z,21.68
2023-05-05T09:20:08.239Z,21.09
2023-05-05T09:25:15.233Z,20.23
2023-05-05T09:30:24.558Z,20.04
2023-05-05T09:35:27.502Z,20.18
2023-05-05T09:40:45.587Z,19.91
2023-05-05T09:45:49.480Z,20.42
2023-05-05T09:50:53.386Z,20.31
2023-05-05T09:55:58.171Z,20.03
2023-05-05T10:01:01.415Z,19.35
2023-05-05T10:06:04.883Z,20.36
2023-05-05T10:11:07.994Z,20.77
2023-05-05T10:16:12.768Z,19.50
2023-05-05T10:21:20.179Z,18.99
2023-05-05T10:26:26.316Z,19.61
2023-05-05T10:31:52.970Z,19.75
2023-05-05T10:36:57.789Z,19.92
2023-05-05T10:42:04.419Z,21.42
2023-05-05T10:47:07.921Z,21.66
2023-05-05T10:52:17.007Z,20.82
2023-05-05T10:57:25.096Z,19.69
2023-05-05T11:02:29.677Z,20.27
2023-05-05T11:07:34.489Z,20.78
2023-05-05T11:12:52.665Z,19.61
2023-05-05T11:17:57.224Z,19.49
2023-05-05T11:23:03.270Z,19.50
2023-05-05T11:28:07.338Z,19.23
2023-05-05T11:33:27.542Z,19.61
2023-05-05T11:38:33.014Z,19.01
2023-05-05T11:43:36.701Z,17.58
2023-05-05T11:48:54.689Z,17.04
2023-05-05T11:53:59.041Z,18.34
2023-05-05T11:59:20.468Z,18.07
2023-05-05T12:04:23.458Z,18.22
2023-05-05T12:09:27.440Z,17.64
2023-05-05T12:14:30.421Z,17.65
2023-05-05T12:19:34.736Z,18.67
2023-05-05T12:24:37.559Z,18.73
2023-05-05T12:29:40.459Z,17.30
2023-05-05T12:34:44.116Z,17.03
2023-05-05T12:39:47.315Z,17.72
2023-05-05T12:44:50.511Z,17.24
2023-05-05T12:49:53.670Z,16.77
2023-05-05T12:54:58.876Z,15.87
2023-05-05T13:00:14.022Z,15.93
2023-05-05T13:05:38.373Z,16.17
2023-05-05T13:10:57.561Z,16.30
2023-05-05T13:16:00.800Z,16.56
2023-05-05T13:21:04.089Z,16.57
2023-05-05T13:26:07.462Z,16.49
2023-05-05T13:31:10.619Z,16.42
2023-05-05T13:36:14.332Z,16.37
2023-05-05T13:41:17.249Z,16.21
2023-05-05T13:46:20.485Z,15.82
2023-05-05T13:51:23.452Z,15.56
2023-05-05T13:56:27.889Z,15.47
2023-05-05T14:01:31.048Z,15.42
2023-05-05T14:06:34.271Z,15.28
2023-05-05T14:11:37.424Z,14.77
2023-05-05T14:16:40.270Z,14.41
2023-05-05T14:21:43.644Z,14.30
2023-05-05T14:26:46.650Z,14.80
2023-05-05T14:31:49.649Z,15.05
2023-05-05T14:36:52.666Z,14.63
2023-05-05T14:41:55.511Z,14.90
2023-05-05T14:46:58.468Z,15.19
2023-05-05T14:52:01.377Z,14.80
2023-05-05T14:57:04.377Z,14.60
2023-05-05T15:02:07.761Z,14.70
2023-05-05T15:07:11.621Z,14.39
2023-05-05T15:12:14.532Z,14.60
2023-05-05T15:17:17.538Z,15.06
2023-05-05T15:22:20.535Z,16.51
2023-05-05T15:27:23.349Z,18.04
2023-05-05T15:32:26.266Z,19.22
2023-05-05T15:37:29.424Z,20.45
2023-05-05T15:42:33.880Z,21.90
2023-05-05T15:47:36.722Z,22.48
2023-05-05T15:52:39.697Z,23.01
2023-05-05T15:57:42.614Z,23.25
2023-05-05T16:02:45.664Z,23.91
2023-05-05T16:07:48.719Z,24.24
2023-05-05T16:12:52.296Z,24.50
2023-05-05T16:17:55.404Z,24.64
2023-05-05T16:22:58.354Z,25.01
2023-05-05T16:28:01.980Z,25.33
2023-05-05T16:33:04.813Z,25.68
2023-05-05T16:38:07.924Z,25.93
2023-05-05T16:43:11.015Z,26.27
2023-05-05T16:48:14.846Z,26.59
2023-05-05T16:53:17.834Z,26.53
2023-05-05T16:58:21.392Z,26.99
2023-05-05T17:03:24.255Z,27.74
2023-05-05T17:08:27.162Z,27.57
2023-05-05T17:13:30.060Z,28.31
2023-05-05T17:18:32.899Z,28.44
2023-05-05T17:23:35.765Z,29.10
2023-05-05T17:28:38.673Z,29.18
2023-05-05T17:33:41.588Z,29.13
2023-05-05T17:38:44.476Z,29.69
2023-05-05T17:43:47.381Z,29.79
2023-05-05T17:48:51.467Z,29.86
2023-05-05T17:53:54.421Z,30.13
2023-05-05T17:58:57.228Z,30.19
2023-05-05T18:04:00.740Z,30.79
2023-05-05T18:09:03.851Z,30.98
2023-05-05T18:14:06.780Z,31.48
2023-05-05T18:19:09.761Z,31.80
2023-05-05T18:29:22.230Z,32.23
2023-05-05T18:34:25.132Z,32.76
2023-05-05T18:39:28.357Z,32.77
2023-05-05T18:44:32.992Z,32.90
2023-05-05T18:49:35.899Z,33.28
2023-05-05T18:54:38.687Z,33.14
2023-05-05T18:59:41.612Z,33.44
2023-05-05T19:04:44.582Z,33.73
2023-05-05T19:09:47.509Z,34.18
2023-05-05T19:14:50.518Z,34.90
2023-05-05T19:19:53.418Z,35.50
2023-05-05T19:24:56.322Z,36.01
2023-05-05T19:29:59.221Z,36.75
2023-05-05T19:35:03.255Z,37.42
2023-05-05T19:40:07.128Z,38.44
2023-05-05T19:45:10.090Z,38.22
2023-05-05T19:50:15.495Z,38.60
2023-05-05T19:55:18.973Z,39.32
2023-05-05T20:00:21.974Z,39.32
2023-05-05T20:05:24.876Z,39.31
2023-05-05T20:10:28.087Z,40.39
2023-05-05T20:15:31.983Z,40.55
2023-05-05T20:20:36.046Z,40.57
2023-05-05T20:25:39.161Z,41.68
2023-05-05T20:30:42.075Z,41.59
2023-05-05T20:35:44.974Z,42.11
2023-05-05T20:40:48.179Z,42.67
2023-05-05T20:45:51.818Z,42.47
2023-05-05T20:50:54.991Z,42.76
2023-05-05T20:55:58.144Z,42.95
2023-05-05T21:01:01.169Z,42.94
2023-05-05T21:06:04.557Z,43.24
2023-05-05T21:11:10.938Z,43.10
2023-05-05T21:16:13.960Z,43.33
2023-05-05T21:21:17.554Z,43.78
2023-05-05T21:26:21.278Z,44.01
2023-05-05T21:31:24.182Z,44.38
2023-05-05T21:36:27.601Z,46.51
2023-05-05T21:41:30.912Z,46.52
2023-05-05T21:46:34.085Z,46.85
2023-05-05T21:51:37.438Z,47.36
2023-05-05T21:56:40.961Z,47.27
2023-05-05T22:01:43.899Z,47.64
2023-05-05T22:06:46.878Z,49.44
2023-05-05T22:11:50.623Z,48.51
2023-05-05T22:16:53.600Z,48.79
2023-05-05T22:21:58.732Z,48.17
2023-05-05T22:27:02.035Z,48.46
2023-05-05T22:32:04.973Z,49.06
2023-05-05T22:37:08.897Z,50.05
2023-05-05T22:42:11.908Z,50.74
2023-05-05T22:47:14.923Z,51.76
2023-05-05T22:52:18.229Z,50.66
2023-05-05T22:57:21.650Z,52.25
2023-05-05T23:02:26.972Z,54.69
2023-05-05T23:07:30.010Z,54.33
2023-05-05T23:12:33.778Z,54.30
2023-05-05T23:17:36.758Z,54.90
2023-05-05T23:22:39.749Z,53.46
2023-05-05T23:27:42.651Z,52.71
2023-05-05T23:32:46.210Z,52.38
2023-05-05T23:37:49.586Z,54.11
2023-05-05T23:42:52.421Z,52.67
2023-05-05T23:47:55.341Z,52.94
2023-05-05T23:52:58.305Z,53.83
2023-05-05T23:58:01.208Z,53.71
